Terminal Aerodrome Forecast
Issued by NWS

Home | Current Version | Previous Version | Text Only | Print | Product List | Glossary On
Versions: 1 2 3 4 5 6 7 8 9 10 11 12 13 14 15 16 17
000
FTUS43 KAPX 042002 AAA
TAFAPN
TAF AMD
KAPN 042002Z 0420/0518 01013KT P6SM OVC009
     FM042200 01012KT P6SM OVC015
     FM050000 36008KT P6SM OVC050
     FM050500 35005KT P6SM OVC015
     FM051400 36005KT P6SM BKN025=

USA.gov is the U.S. government's official web portal to all federal, state and local government web resources and services.